Clairfield, Tennessee
Current Conditions -  °F | °C
As of 10:55 AM on Thursday 30 Oct 2014 (Local Time) from K1A6 Reporting Station
Haze Haze  
Wind Chill: 39°   Ceiling: 100
Heat Index: 39°   Visibility: 2mi
Dew Point: 39°   Wind: 0mph
Humidity: 100%   Direction: NA
Pressure: 30.16"   Gusts: NA
Location:  36.55°N, 83.95°W
Report Text: K1A6 301455Z AUTO 00000KT 2SM BR OVC001 04/04 A3016 RMK AO2 VIS 1 1/4V5 T00410041
Loading
Personal Weather Stations






























Interactive Weather Map
Tropical Storm Tracking
New forecast layout! Learn more

10-Day Weather Forecast

Advertisements
Track Severe Weather on mobile